Date,TemperatureHighF,TemperatureAvgF,TemperatureLowF,DewpointHighF,DewpointAvgF,DewpointLowF,HumidityHigh,HumidityAvg,HumidityLow,PressureMaxIn,PressureMinIn,WindSpeedMaxMPH,WindSpeedAvgMPH,GustSpeedMaxMPH,PrecipitationSumIn
2013-1-21,58.9,50.8,43.4,38.8,33.3,25.2,70,52,36,30.10,30.02,7,4,16,0.00
2013-1-22,57.9,50.5,45.8,40.9,37.8,34.7,72,62,48,30.04,29.92,8,4,19,0.00
2013-1-23,54.6,49.1,44.7,50.0,42.5,12.2,79,40,1,30.02,29.88,5,2,14,0.40
2013-1-24,57.9,49.2,44.7,51.8,44.4,-34.8,80,13,1,30.12,30.00,5,1,12,0.00
2013-1-25,62.3,53.1,47.9,55.3,38.2,-35.6,79,31,1,30.12,29.97,5,1,11,0.00
2013-1-26,52.0,46.3,41.5,50.0,39.5,-20.9,80,40,1,29.99,29.90,6,3,20,0.00
2013-1-27,50.6,44.2,37.0,42.2,32.5,-10.9,80,66,10,30.09,29.98,12,2,15,0.00
2013-1-28,52.3,45.1,40.3,44.5,29.0,-52.4,80,62,1,30.21,30.09,10,3,15,0.00
2013-1-29,54.6,46.0,41.4,45.8,11.1,-99.9,79,48,1,30.28,30.20,12,2,16,0.00
2013-1-30,65.4,55.1,46.6,51.2,44.1,38.8,79,67,50,30.25,30.17,6,1,6,0.00
2013-1-31,63.2,53.7,47.3,48.9,44.3,40.8,79,71,55,30.20,30.10,7,1,10,0.00
2013-2-1,61.5,53.2,46.5,45.6,43.0,40.3,79,69,53,30.12,30.04,13,3,16,0.00
2013-2-2,57.2,47.0,42.3,50.3,15.8,-99.9,79,34,1,30.22,30.12,8,2,11,0.00
2013-2-3,55.9,44.7,38.8,48.8,-41.5,-99.9,78,25,1,30.17,30.07,5,1,10,0.01
2013-2-4,54.3,44.9,39.5,46.7,-50.8,-99.9,77,18,1,30.11,30.00,7,1,9,0.01
2013-2-5,49.4,44.1,41.3,41.5,-8.6,-99.9,75,29,1,30.04,30.00,10,2,13,0.00
2013-2-6,53.1,45.2,38.5,44.9,9.6,-53.6,79,41,1,30.12,30.06,5,1,16,0.00
2013-2-7,52.3,44.5,38.6,45.3,-0.1,-53.6,79,35,1,30.09,29.92,6,2,17,0.28
2013-2-8,51.1,41.8,33.9,42.9,-14.5,-99.9,79,39,1,29.95,29.87,9,1,13,0.09
2013-2-9,55.9,45.6,37.4,37.8,30.4,16.0,79,57,30,30.00,29.93,7,1,11,0.00
2013-2-10,59.8,48.7,41.5,45.4,30.7,16.5,78,51,30,30.03,29.94,9,1,10,0.00
2013-2-11,63.0,52.5,44.9,44.1,32.2,22.4,77,48,28,30.13,29.99,14,2,18,0.00
2013-2-12,59.1,47.4,40.4,47.9,15.9,-99.9,78,52,1,30.29,30.12,6,1,8,0.00
2013-2-13,61.3,51.2,43.9,48.1,38.8,0.2,78,63,15,30.25,30.13,7,1,7,0.00
2013-2-14,69.1,57.2,49.2,50.0,44.6,39.6,76,64,40,30.17,30.07,7,1,11,0.00
2013-2-15,66.8,58.7,49.6,44.1,39.9,36.2,65,50,33,30.18,30.11,12,2,13,0.00
2013-2-16,68.5,56.5,43.1,52.2,29.5,-99.9,76,53,1,30.15,29.99,13,2,13,0.00
2013-2-17,59.5,47.7,38.8,48.1,-2.0,-99.9,78,38,1,29.98,29.90,6,2,13,0.00
2013-2-18,49.4,42.9,40.0,41.6,5.2,-52.0,79,46,1,29.95,29.88,16,2,17,0.00
2013-2-19,43.7,40.2,34.4,36.1,-2.0,-99.9,79,43,1,29.88,29.67,19,3,27,0.23
2013-2-20,51.2,42.3,33.7,42.7,27.7,-10.9,79,59,10,30.00,29.79,13,2,17,0.00
2013-2-21,54.2,45.2,38.2,42.4,31.0,2.4,78,59,18,30.10,29.98,14,2,17,0.00
2013-2-22,59.7,47.2,40.8,45.4,8.3,-99.9,78,49,1,30.18,30.10,10,2,18,0.00
2013-2-23,52.1,44.6,39.4,40.5,-4.4,-99.9,78,49,1,30.19,30.10,12,2,21,0.00
2013-2-24,60.4,47.1,36.8,39.2,32.1,24.3,79,58,27,30.18,30.10,9,1,12,0.00
2013-2-25,55.8,46.1,38.8,47.5,12.6,-99.9,77,50,1,30.20,30.12,12,2,16,0.00
2013-2-26,63.8,50.0,39.9,40.1,33.0,-29.6,78,55,4,30.14,30.08,9,1,14,0.00
2013-2-27,65.9,51.7,42.3,43.3,12.4,-99.9,76,41,1,30.29,30.13,12,1,15,0.00
2013-2-28,60.9,50.2,43.9,52.6,-36.4,-99.9,76,27,1,30.38,30.29,14,1,14,0.00
2013-3-1,71.0,57.8,48.4,55.6,31.4,-99.9,75,53,1,30.35,30.15,10,1,12,0.00
2013-3-2,67.1,58.2,52.2,54.9,48.6,37.6,76,71,57,30.15,29.99,11,2,12,0.00
2013-3-3,60.0,51.5,44.6,50.2,34.6,-99.9,75,55,1,30.01,29.95,7,2,14,0.00
2013-3-4,57.2,43.6,39.3,47.7,-29.8,-99.9,78,22,1,30.08,29.98,10,1,12,0.00
2013-3-5,48.1,43.4,37.9,39.4,-28.2,-99.9,72,27,1,29.99,29.73,32,8,38,0.63
2013-3-6,51.8,45.7,40.2,44.8,-18.0,-99.9,78,39,1,29.98,29.75,24,5,37,0.14
2013-3-7,49.7,42.9,37.6,42.3,-61.6,-99.9,78,19,1,29.92,29.80,7,1,10,0.04
2013-3-8,51.3,44.4,38.6,44.3,-0.2,-99.9,78,47,1,29.97,29.78,14,2,22,0.01
2013-3-9,62.0,49.3,39.3,49.1,8.8,-99.9,77,47,1,30.24,29.96,8,1,12,0.00
2013-3-10,66.0,55.5,45.5,50.5,40.2,10.5,76,57,23,30.26,30.17,6,1,9,0.00
2013-3-11,70.4,55.5,44.3,52.4,13.3,-99.9,74,39,1,30.17,30.03,6,1,9,0.00
2013-3-12,71.9,55.1,40.8,58.2,12.9,-99.9,76,47,1,30.07,30.00,8,1,10,0.00
2013-3-13,75.8,61.1,50.0,57.7,49.2,41.9,75,66,48,30.07,29.98,7,1,11,0.00
2013-3-14,64.7,55.5,45.7,53.9,44.2,5.8,76,67,19,30.08,29.98,10,1,13,0.00
2013-3-15,68.0,52.7,43.6,51.9,30.0,-99.9,76,56,1,30.05,29.97,12,1,14,0.00
2013-3-16,61.8,49.6,41.0,50.2,-10.7,-99.9,76,39,1,30.05,29.97,13,2,16,0.01
2013-3-17,62.2,48.8,42.7,49.8,11.6,-99.9,76,44,1,30.07,29.99,11,2,17,0.00
2013-3-18,64.3,51.3,42.6,51.1,38.9,-14.7,76,64,7,30.04,29.95,7,1,12,0.00
2013-3-19,61.7,52.3,43.0,48.8,29.8,-99.9,76,52,1,30.05,29.97,12,1,17,0.03
2013-3-20,51.3,48.1,42.2,50.0,-43.4,-99.9,66,11,1,30.07,29.98,11,3,18,0.24
2013-3-21,57.2,46.0,36.2,48.1,-15.6,-99.9,77,37,1,30.06,29.96,12,1,12,0.01
2013-3-22,59.7,47.8,39.9,44.7,28.4,-99.9,77,57,1,30.06,29.97,6,1,13,0.00
2013-3-23,64.5,51.7,43.8,46.5,37.9,30.6,76,61,35,30.06,29.97,6,1,10,0.00
2013-3-24,66.6,51.3,41.1,51.5,32.5,-99.9,76,62,1,30.00,29.90,11,1,12,0.00
2013-3-25,54.2,44.5,39.1,46.4,-33.9,-99.9,77,29,1,29.96,29.87,10,2,16,0.00
2013-3-26,62.4,48.7,41.1,50.4,-16.9,-99.9,76,37,1,29.92,29.87,10,1,12,0.00
2013-3-27,55.1,48.9,45.1,40.5,-56.0,-99.9,59,13,1,29.94,29.86,9,2,12,0.01
2013-3-28,63.7,51.9,46.3,55.2,-49.9,-99.9,75,22,1,30.02,29.93,8,2,11,0.00
2013-3-29,73.2,57.2,45.9,55.4,0.8,-99.9,75,44,1,30.01,29.93,13,2,14,0.01
2013-3-30,65.6,53.2,47.4,52.3,-18.9,-99.9,75,31,1,29.99,29.92,14,3,15,0.25
2013-3-31,60.1,51.1,47.7,51.8,-71.7,-99.9,76,12,1,29.99,29.91,13,4,22,0.48
2013-4-1,60.5,51.1,43.8,53.2,-60.9,-99.9,78,19,1,30.09,29.96,7,1,12,0.09
2013-4-2,62.2,49.5,42.7,55.3,-52.9,-99.9,79,24,1,30.11,30.03,9,1,9,0.00
2013-4-3,72.4,52.3,40.7,59.2,-31.0,-99.9,79,30,1,30.07,29.92,7,1,10,0.01
2013-4-4,51.3,48.9,45.1,41.8,-96.5,-99.9,76,2,1,30.05,29.89,15,4,19,0.86
2013-4-5,58.6,51.9,47.9,52.4,-32.9,-99.9,80,28,1,30.12,30.05,10,2,12,0.01
2013-4-6,61.2,52.0,47.7,54.0,-43.3,-99.9,80,25,1,30.11,30.07,7,2,12,0.03
2013-4-22,84.4,71.8,63.3,55.1,46.4,37.3,53,41,28,29.87,29.77,4,1,14,0.00
2013-4-23,77.5,64.2,45.7,53.1,36.7,21.7,78,40,18,29.84,29.76,5,2,16,0.00
2013-4-24,61.3,50.9,42.7,51.3,37.4,-19.3,78,51,1,29.87,29.74,9,3,18,0.00
2013-4-25,55.3,49.7,46.3,50.0,39.7,-47.6,78,30,1,30.06,29.86,9,3,19,0.00
2013-4-26,63.1,50.0,43.1,53.3,43.2,-49.3,78,29,1,30.15,30.05,3,1,10,0.00
2013-4-27,71.5,50.9,42.1,58.6,49.5,-12.1,78,29,1,30.16,30.00,3,1,10,0.00
2013-4-28,79.7,64.5,42.1,61.0,48.6,11.4,78,51,1,30.00,29.78,3,1,9,0.00
2013-4-29,83.1,65.5,47.4,57.5,49.4,34.0,77,57,37,29.81,29.71,15,2,19,0.00
2013-4-30,70.7,58.3,45.1,49.6,38.1,-12.6,77,50,8,29.79,29.72,11,2,14,0.00
2013-5-1,82.3,69.5,59.7,43.9,25.7,8.3,37,20,10,29.99,29.77,11,1,14,0.00
2013-5-2,89.0,73.3,63.5,44.2,25.2,13.8,23,17,12,30.06,29.98,8,2,12,0.00
2013-5-3,86.1,73.2,64.0,54.1,31.3,19.9,39,22,14,29.98,29.69,10,1,13,0.00
2013-5-4,84.5,67.7,49.0,48.8,13.8,-99.9,75,26,1,29.69,29.48,24,4,24,0.00
2013-5-5,59.4,52.5,49.1,51.1,-3.8,-99.9,76,35,1,29.74,29.50,33,11,33,0.01
2013-5-6,65.7,57.3,50.8,52.8,40.0,-10.9,75,55,7,29.89,29.74,14,4,17,0.00
2013-5-7,68.6,57.4,46.9,55.1,2.9,-99.9,75,34,1,29.97,29.88,12,3,15,0.00
2013-5-8,57.1,49.3,46.2,49.6,-56.8,-99.9,77,16,1,30.08,29.96,8,1,14,0.00
2013-5-9,57.6,49.5,44.8,50.1,-42.8,-99.9,76,27,1,30.10,30.04,11,2,16,0.00
2013-5-10,67.4,51.0,44.5,57.9,-49.7,-99.9,76,23,1,30.12,30.06,9,2,12,0.00
2013-5-11,80.3,58.5,41.9,63.1,-19.0,-99.9,75,32,1,30.07,29.99,7,2,12,0.00
2013-5-12,69.7,59.7,47.0,59.8,32.2,-99.9,75,58,1,30.08,29.96,9,2,18,0.00
2013-5-13,68.1,54.9,44.2,57.4,-5.0,-99.9,75,43,1,30.02,29.88,15,2,17,0.01
2013-5-14,67.5,53.9,44.4,52.7,-0.5,-99.9,75,40,1,29.92,29.85,12,2,19,0.00
2013-5-15,59.2,50.0,43.2,49.5,-32.1,-99.9,75,31,1,29.98,29.91,16,4,20,0.00
2013-5-16,65.5,52.7,47.0,57.0,-44.5,-99.9,76,24,1,29.97,29.90,13,3,17,0.00
2013-5-17,63.2,51.8,43.7,51.6,-15.5,-99.9,76,39,1,30.00,29.89,16,3,22,0.00
2013-5-18,65.0,52.8,43.4,50.9,-14.3,-99.9,75,35,1,30.06,29.99,17,2,19,0.00
2013-5-19,75.5,59.8,46.7,51.6,24.3,-99.9,75,46,1,30.05,29.90,13,1,16,0.00
2013-5-20,84.2,66.4,44.7,51.1,25.0,-99.9,73,37,1,29.93,29.85,11,2,15,0.00
2013-5-21,59.0,50.6,44.1,49.1,24.0,-99.9,74,53,1,29.94,29.82,20,5,27,0.00
2013-5-22,56.8,48.0,39.8,42.4,30.2,-50.5,76,57,1,29.97,29.85,17,3,18,0.00
2013-5-23,62.6,49.8,41.1,46.2,-15.8,-99.9,75,34,1,29.95,29.84,15,3,19,0.00
2013-5-24,64.5,49.9,39.5,47.8,-17.2,-99.9,74,35,1,29.93,29.88,14,2,22,0.01
2013-5-25,62.3,49.8,41.3,48.7,-20.4,-99.9,75,37,1,29.97,29.88,18,3,29,0.00
2013-5-26,64.9,53.6,46.4,54.0,43.1,4.0,75,31,1,30.06,29.96,6,3,20,0.00
2013-5-27,57.9,50.6,46.2,39.5,-27.7,-99.9,49,3,1,30.05,29.92,11,2,21,0.14
2013-5-28,63.3,54.7,48.3,54.9,-40.6,-99.9,74,25,1,29.93,29.85,11,2,18,0.04
2013-5-29,63.7,53.6,44.9,54.7,-18.0,-99.9,75,33,1,29.92,29.85,15,3,22,0.01
2013-5-30,64.4,52.0,42.7,51.1,-4.7,-99.9,75,43,1,29.93,29.87,17,2,17,0.01
2013-5-31,80.8,60.8,46.1,54.4,43.0,-11.4,75,54,8,29.94,29.85,10,2,20,0.00
2013-6-1,83.1,64.5,48.5,55.8,47.5,34.4,74,56,35,29.86,29.71,19,2,19,0.00
2013-6-2,72.6,57.8,44.4,55.5,48.3,-7.4,74,46,1,29.71,29.59,4,2,11,0.00
2013-6-3,63.9,55.1,47.0,53.0,0.5,-99.9,74,44,1,29.79,29.60,16,5,17,0.00
2013-6-4,59.8,51.3,46.6,51.1,-42.4,-99.9,73,23,1,29.90,29.78,17,5,19,0.00
2013-6-5,65.8,51.5,45.5,55.3,-46.0,-99.9,74,24,1,29.94,29.86,14,3,15,0.00
2013-6-6,74.0,54.7,44.9,59.3,-40.1,-99.9,73,22,1,29.89,29.79,10,2,11,0.00
2013-6-7,87.1,66.1,43.6,63.9,-8.5,-99.9,73,27,1,29.80,29.63,6,1,7,0.00
2013-6-8,87.9,76.7,56.1,63.2,55.5,40.2,74,49,32,29.68,29.60,11,2,14,0.00
2013-6-9,60.3,52.4,49.3,50.0,5.4,-99.9,69,10,1,29.83,29.70,19,6,22,0.01
2013-6-10,57.2,52.2,49.3,42.8,-52.9,-99.9,60,16,1,29.89,29.73,14,4,24,0.04
2013-6-11,71.5,57.4,49.1,58.3,-8.3,-99.9,74,39,1,29.92,29.82,10,1,16,0.00
2013-6-12,66.4,54.6,44.0,51.9,10.3,-99.9,74,43,1,29.92,29.83,15,2,26,0.00
2013-6-13,68.4,55.1,43.4,50.8,22.2,-99.9,74,49,1,30.03,29.92,11,2,17,0.00
2013-6-14,82.8,62.9,45.3,53.6,35.8,-99.9,74,47,1,29.93,29.75,13,2,14,0.00
2013-6-15,73.3,54.8,41.8,55.8,-11.1,-99.9,73,37,1,29.91,29.74,12,2,13,0.00
2013-6-16,67.8,55.0,43.5,54.0,-2.1,-99.9,74,42,1,30.02,29.91,17,3,22,0.01
2013-6-17,65.8,54.2,45.4,56.1,-34.2,-99.9,73,29,1,30.02,29.94,17,4,21,0.00
2013-6-18,63.8,53.2,46.9,52.3,-32.6,-99.9,74,29,1,29.97,29.92,16,4,21,0.00
2013-6-19,65.0,54.1,45.6,51.3,-3.4,-99.9,74,40,1,29.99,29.94,13,4,27,0.00
2013-6-20,66.9,55.0,45.7,50.6,0.5,-99.9,73,38,1,29.94,29.89,13,3,21,0.00
2013-6-21,73.2,56.5,43.6,52.5,4.1,-99.9,74,43,1,29.91,29.84,12,2,22,0.00
2013-6-22,79.2,63.0,50.4,54.5,46.7,-32.3,73,57,2,29.85,29.77,15,2,20,0.00
2013-6-23,57.3,53.6,48.8,50.0,-11.6,-15.0,1,1,1,29.81,29.74,8,3,24,0.00
2013-6-24,56.0,52.0,49.6,-15.0,-15.0,-15.0,1,1,1,29.82,29.72,6,2,13,0.14
2013-6-25,57.8,55.0,51.8,-15.0,-15.0,-15.0,1,1,1,29.92,29.80,11,6,25,0.71
2013-6-26,76.7,64.1,55.2,67.1,3.8,-99.9,77,26,1,29.98,29.90,11,2,11,0.00
2013-6-27,76.4,64.1,53.4,62.8,-2.9,-99.9,77,42,1,30.02,29.94,14,2,18,0.01
2013-6-28,90.2,75.2,62.8,66.5,59.4,52.9,76,59,43,29.94,29.82,10,1,16,0.00
2013-6-29,92.6,75.9,57.8,59.6,54.0,47.9,76,48,29,29.83,29.72,17,2,21,0.00
2013-6-30,79.6,63.3,52.3,59.9,40.8,-99.9,76,55,1,29.76,29.69,16,-26,23,0.00
2013-7-1,91.7,71.9,50.7,64.7,34.1,-99.9,76,44,1,29.75,29.71,7,1,13,0.00
2013-7-2,90.5,75.5,57.5,65.6,57.7,30.8,75,55,36,29.80,29.69,15,3,19,0.00
2013-7-3,91.8,70.7,52.7,65.5,26.5,-99.9,75,42,1,29.80,29.67,10,1,14,0.00
2013-7-4,92.3,74.7,56.8,64.4,56.9,45.9,75,56,37,29.68,29.60,14,2,21,0.00
2013-7-5,73.1,57.1,46.4,57.1,-7.2,-99.9,76,38,1,29.69,29.61,15,2,17,0.00
2013-7-6,71.6,51.1,45.0,56.7,-60.1,-99.9,76,18,1,29.71,29.64,6,1,7,0.00
2013-7-14,70.6,55.3,44.2,56.9,51.2,2.9,74,29,1,29.92,29.83,3,1,11,0.00
2013-7-15,61.5,50.4,44.3,53.1,48.6,-15.7,75,17,1,29.86,29.78,9,4,18,0.00
2013-7-16,62.1,53.1,47.2,53.3,36.0,-44.1,73,17,1,29.96,29.78,6,3,15,0.00
2013-7-17,71.5,57.9,47.9,59.2,49.7,-44.1,73,28,1,30.01,29.94,4,1,13,0.00
2013-7-18,77.9,57.6,44.0,60.9,51.8,-26.3,74,29,1,29.98,29.86,4,1,11,0.00
2013-7-19,80.5,57.9,44.3,62.3,52.1,-0.8,74,29,1,29.87,29.76,4,2,11,0.00
2013-7-20,81.2,60.6,44.5,61.4,53.4,-22.5,74,32,1,29.77,29.67,7,1,11,0.00
2013-7-21,81.3,61.9,45.4,56.7,49.6,18.5,74,35,1,29.77,29.67,12,3,19,0.00
2013-7-22,78.9,63.3,51.6,59.7,12.8,-99.9,73,46,1,29.87,29.77,15,5,18,0.00
2013-7-23,74.8,63.2,51.6,60.3,36.0,-99.9,73,56,1,29.92,29.84,10,2,14,0.00
2013-7-24,80.5,63.9,50.6,60.2,5.2,-99.9,73,40,1,29.90,29.83,7,1,11,0.00
2013-7-25,78.7,60.0,47.1,57.7,-10.4,-99.9,73,34,1,29.94,29.82,9,2,10,0.00
2013-7-26,77.4,57.7,46.9,61.0,-26.0,-99.9,73,30,1,30.01,29.91,11,2,12,0.00
2013-7-27,77.2,56.7,47.5,59.7,-37.6,-99.9,74,26,1,29.94,29.79,12,2,12,0.00
2013-7-28,69.8,56.1,47.4,57.5,-23.7,-99.9,74,33,1,29.79,29.74,11,2,14,0.00
2013-7-29,59.8,51.4,46.7,49.6,-24.8,-99.9,69,13,1,29.94,29.75,15,4,17,0.00
2013-7-30,71.1,54.3,47.1,58.4,-47.6,-99.9,74,23,1,30.04,29.94,11,2,12,0.00
2013-7-31,69.6,55.7,46.3,56.7,-27.3,-99.9,74,31,1,30.00,29.93,14,3,19,0.00
2013-8-1,68.1,55.2,47.5,55.4,-34.5,-99.9,74,28,1,29.99,29.90,13,3,22,0.00
2013-8-2,78.4,57.1,44.7,58.1,-26.9,-99.9,74,29,1,29.90,29.82,9,1,11,0.01
2013-8-3,74.2,57.5,44.9,58.5,-19.3,-99.9,75,33,1,29.89,29.82,7,1,11,0.00
2013-8-4,71.6,54.1,45.9,57.6,-12.3,-99.9,75,24,1,29.93,29.87,12,2,15,0.00
2013-8-5,70.8,53.1,46.7,57.9,-48.7,-99.9,75,23,1,29.96,29.87,6,2,9,0.01
2013-8-6,65.8,53.1,46.5,56.3,-49.2,-99.9,75,23,1,29.97,29.89,15,2,18,0.01
2013-8-7,62.6,54.7,49.4,54.6,-48.3,-99.9,75,20,1,30.03,29.96,13,3,17,0.05
2013-8-8,67.7,54.3,47.9,58.3,-54.4,-99.9,76,20,1,29.96,29.88,10,1,16,0.05
2013-8-9,66.8,53.8,47.3,57.5,-43.2,-99.9,77,25,1,29.92,29.84,12,2,14,0.01
2013-8-10,71.4,56.2,49.3,60.2,-48.0,-99.9,78,23,1,29.98,29.91,11,1,13,0.01
2013-8-11,72.8,56.0,48.5,60.1,-44.2,-99.9,77,24,1,29.95,29.87,7,1,12,0.00
2013-8-12,79.6,58.6,46.8,61.5,-29.4,-99.9,78,27,1,29.91,29.85,6,1,9,0.01
2013-8-13,84.2,63.0,47.1,61.8,28.6,-99.9,78,51,1,29.90,29.84,9,1,13,0.00
2013-8-14,72.7,58.1,47.2,59.2,-28.4,-99.9,78,26,1,29.90,29.84,15,2,19,0.00
2013-8-15,78.3,62.8,55.2,66.8,-23.5,-99.9,77,25,1,29.89,29.83,12,2,16,0.00
2013-8-16,79.9,62.0,52.0,64.1,-38.4,-99.9,78,25,1,29.90,29.84,12,2,21,0.01
2013-8-17,74.5,62.1,51.3,58.2,37.2,-99.9,79,50,1,29.89,29.78,15,2,19,0.00
2013-8-18,91.7,72.7,51.0,64.8,49.2,-42.6,78,46,1,29.79,29.68,9,1,11,0.00
2013-8-19,88.3,74.9,57.4,62.4,54.9,27.8,77,51,32,29.78,29.67,11,2,13,0.00
2013-8-20,77.5,60.0,52.3,58.3,-23.2,-99.9,78,29,1,29.82,29.73,11,3,12,0.00
2013-8-21,75.2,58.3,50.6,57.8,-21.0,-99.9,79,29,1,29.87,29.78,11,2,14,0.00
2013-8-22,69.5,57.1,49.3,57.2,-12.2,-99.9,79,35,1,29.90,29.82,12,2,15,0.00
2013-8-23,73.0,57.7,49.5,59.2,-31.6,-99.9,79,28,1,29.84,29.74,14,2,19,0.00
2013-8-24,73.4,59.0,49.3,59.9,-28.6,-99.9,79,31,1,29.81,29.74,10,2,17,0.00
2013-8-25,74.3,61.9,56.3,64.8,-50.9,-99.9,78,23,1,29.85,29.80,12,2,16,0.00
2013-8-26,71.0,58.2,52.4,59.5,-4.1,-43.9,78,25,1,29.94,29.83,6,2,14,0.00
2013-8-27,76.2,62.3,53.4,60.1,29.3,-43.9,78,48,1,29.82,29.75,6,2,13,0.00
2013-8-28,76.6,61.0,52.4,65.8,-8.3,-41.4,78,23,1,29.86,29.76,4,2,13,0.00
2013-8-29,77.5,62.1,54.6,64.8,-5.5,-39.7,79,24,1,29.98,29.86,4,2,19,0.00
2013-8-30,81.7,64.7,54.0,65.9,21.9,-39.7,79,42,1,29.96,29.84,9,2,21,0.00
2013-8-31,73.7,60.5,51.6,60.8,6.7,-99.9,79,43,1,29.89,29.83,7,2,13,0.00
2013-9-1,76.1,61.6,49.7,61.5,-11.9,-99.9,79,33,1,29.87,29.81,8,2,17,0.00
2013-9-2,75.9,63.4,56.0,64.7,-32.2,-99.9,79,29,1,29.88,29.81,12,2,14,0.00
2013-9-3,73.7,61.7,51.0,60.3,-11.6,-99.9,80,35,1,29.91,29.83,14,2,17,0.00
2013-9-4,71.0,60.6,53.1,60.3,-26.8,-99.9,80,32,1,29.94,29.86,15,3,18,0.00
2013-9-5,70.1,59.7,52.4,58.6,-5.5,-99.9,80,40,1,29.93,29.86,13,3,19,0.00
2013-9-6,87.1,68.9,53.0,57.2,30.9,-99.9,80,38,1,29.90,29.75,14,1,14,0.00
2013-9-7,92.6,77.9,65.5,54.0,50.3,46.4,58,40,22,29.77,29.71,13,2,15,0.00
2013-9-8,84.2,70.3,56.8,61.6,53.6,47.3,78,57,43,29.76,29.68,6,1,8,0.00
2013-9-9,89.9,72.8,59.7,59.8,52.7,41.0,77,51,29,29.71,29.61,7,1,12,0.00
2013-9-10,66.8,58.4,52.8,58.8,-32.7,-99.9,79,29,1,29.82,29.61,14,4,18,0.00
2013-9-11,64.2,58.6,55.1,57.5,-47.6,-99.9,79,22,1,29.92,29.81,10,3,14,0.01
2013-9-12,72.4,58.6,52.0,63.2,-50.6,-99.9,81,21,1,29.91,29.82,9,1,15,0.03
2013-9-13,71.4,55.6,49.2,61.1,-49.9,-99.9,81,23,1,29.83,29.70,13,2,17,0.01
2013-9-14,64.4,54.3,49.4,58.8,-61.6,-99.9,82,19,1,29.76,29.68,15,3,19,0.01
2013-9-15,72.9,60.2,50.9,59.6,-9.0,-99.9,81,30,1,29.78,29.69,14,3,21,0.00
2013-9-16,76.1,59.4,51.5,60.8,-35.4,-99.9,81,28,1,29.81,29.73,16,3,23,0.01
2013-9-17,64.3,56.2,50.8,56.5,-5.4,-99.9,82,48,1,29.81,29.73,16,4,23,0.00
2013-9-18,80.3,60.7,51.7,53.1,48.9,43.4,82,67,35,29.83,29.75,15,2,19,0.00
2013-9-19,84.4,67.2,52.6,55.2,48.8,40.0,81,54,32,29.77,29.67,9,2,14,0.00
2013-9-20,69.4,58.7,51.5,61.7,-29.3,-99.9,81,33,1,29.77,29.67,13,3,19,0.06
2013-9-21,63.5,56.6,52.6,56.2,-60.5,-99.9,82,17,1,29.82,29.71,15,3,15,0.65
2013-9-22,68.4,57.5,48.1,55.5,-15.6,-99.9,82,35,1,29.93,29.82,14,2,19,0.01
2013-9-23,76.2,62.1,54.3,61.5,39.6,-99.9,81,58,1,29.93,29.85,11,1,17,0.00
2013-9-24,67.5,59.0,51.9,55.3,46.9,-10.2,81,67,7,29.91,29.83,14,4,20,0.00
2013-9-25,62.9,54.3,48.1,50.7,16.0,-99.9,81,54,1,29.86,29.75,19,4,23,0.00
2013-9-26,70.6,55.9,45.3,48.5,43.2,36.2,82,65,29,29.90,29.77,9,1,15,0.00
2013-9-27,75.0,62.5,54.3,43.8,39.0,29.0,62,43,24,30.00,29.90,10,2,16,0.00
2013-9-28,78.4,63.5,53.7,55.0,10.2,-99.9,79,30,1,29.99,29.93,16,2,17,0.00
2013-9-29,69.9,60.1,53.2,61.9,-30.6,-99.9,80,26,1,30.02,29.97,17,3,20,0.01
2013-9-30,70.6,59.3,52.3,63.0,-24.3,-99.9,83,39,1,29.99,29.89,12,2,16,0.02
2013-10-1,66.9,55.9,49.1,51.1,38.0,-99.9,83,62,1,29.92,29.85,16,3,22,0.00
2013-10-2,67.2,56.5,49.9,52.3,47.4,43.0,81,72,52,29.93,29.84,13,2,20,0.00
2013-10-3,69.9,57.4,47.2,44.8,39.1,27.6,80,54,25,30.00,29.89,15,2,19,0.00
2013-10-4,77.4,68.5,59.6,28.5,25.2,21.7,28,20,13,30.00,29.89,16,3,26,0.00
2013-10-5,82.5,70.1,62.0,30.2,25.9,21.6,27,19,13,30.09,29.99,13,2,15,0.00
2013-10-6,82.4,69.6,60.7,35.0,30.3,24.4,31,24,14,30.03,29.90,10,2,12,0.00
2013-10-7,79.8,66.1,52.6,47.1,35.3,25.6,79,37,14,29.90,29.79,14,2,14,0.00
2013-10-8,74.0,58.5,48.6,48.8,45.5,39.6,81,64,33,29.82,29.62,12,2,16,0.00
2013-10-9,65.3,55.2,45.0,48.1,33.7,-48.8,82,49,1,29.68,29.55,9,1,17,0.00
2013-10-10,65.5,57.6,47.3,49.2,43.3,37.1,81,60,45,29.91,29.67,9,2,12,0.00
2013-10-11,65.1,51.2,43.0,50.9,21.5,-99.9,82,54,1,30.01,29.90,6,1,11,0.00
2013-10-12,67.0,54.3,49.0,53.5,44.6,13.1,82,70,22,29.92,29.83,12,2,16,0.00
2013-10-13,71.7,57.3,44.6,51.6,-0.3,-99.9,82,34,1,29.97,29.84,13,2,16,0.00
2013-10-14,76.6,63.5,56.4,44.5,36.7,26.8,47,37,25,30.02,29.92,9,1,15,0.00
2013-10-15,78.4,65.7,57.2,40.4,32.8,29.6,42,30,17,29.95,29.87,14,1,16,0.00
2013-10-16,81.4,67.7,59.9,40.1,32.9,27.7,42,28,19,29.99,29.89,11,2,14,0.00
2013-10-17,79.8,66.6,53.3,41.7,32.7,27.3,64,29,18,29.98,29.88,7,1,12,0.00
2013-10-18,75.9,64.0,56.6,51.5,38.5,28.7,70,40,30,29.95,29.88,6,1,6,0.00
2013-10-19,82.3,65.5,56.9,49.8,39.9,34.0,59,40,22,29.98,29.91,6,2,10,0.00
2013-10-20,74.5,59.4,44.5,52.0,38.4,-99.9,82,51,1,29.92,29.83,6,1,7,0.00
2013-10-21,67.7,52.7,40.1,54.1,-8.0,-99.9,83,43,1,29.92,29.84,6,1,6,0.01
2013-10-22,77.1,54.6,41.8,54.1,12.6,-99.9,82,48,1,29.92,29.84,8,2,11,0.00
2013-10-23,67.8,50.9,39.0,53.4,-22.5,-99.9,82,35,1,29.89,29.82,7,1,9,0.00
2013-10-24,58.6,47.7,42.8,51.0,-53.1,-99.9,83,21,1,30.04,29.88,7,1,10,0.00
2013-10-25,65.9,53.1,44.1,52.3,-8.5,-99.9,82,44,1,30.09,30.01,8,1,11,0.01
2013-10-26,77.4,61.7,51.8,52.8,40.7,29.4,69,47,32,30.06,29.93,4,1,7,0.00
2013-10-27,59.9,49.1,43.2,49.4,-9.8,-99.9,82,39,1,29.92,29.59,14,3,24,0.00
2013-10-28,57.8,49.5,44.2,47.5,-13.1,-99.9,82,33,1,29.75,29.58,16,3,18,0.00
2013-10-29,59.8,50.8,44.6,48.5,14.8,-99.9,81,45,1,29.98,29.74,13,3,15,0.00
2013-10-30,64.4,51.9,43.5,49.7,24.1,-99.9,81,59,1,30.07,29.96,9,1,11,0.00
2013-10-31,71.9,59.3,49.7,47.5,43.6,33.8,73,57,40,30.09,29.99,11,1,11,0.00
2013-11-1,71.2,61.6,54.4,46.0,43.7,40.1,67,52,38,30.06,29.93,12,2,13,0.00
2013-11-2,66.0,55.6,45.1,51.7,43.9,35.9,80,65,48,29.94,29.83,13,2,17,0.00
2013-11-3,59.5,48.9,41.9,43.0,38.3,27.2,81,68,40,29.98,29.86,12,1,16,0.00
2013-11-4,64.9,51.9,41.6,40.7,36.6,27.7,81,58,29,30.01,29.84,12,1,16,0.00
2013-11-5,72.3,59.6,50.6,40.9,34.6,-99.9,58,41,25,30.12,29.99,8,-9,14,0.00
2013-11-6,68.8,60.9,54.8,38.8,36.5,33.2,49,41,30,30.17,30.07,9,2,11,0.00
2013-11-7,72.1,58.8,47.6,49.3,7.0,-99.9,79,35,1,30.08,29.99,10,1,17,0.00
2013-11-8,71.8,55.1,45.0,52.8,16.0,-99.9,82,49,1,30.00,29.89,11,1,15,0.00
2013-11-9,70.3,57.1,47.0,48.2,42.7,24.6,82,60,34,29.95,29.88,10,2,13,0.00
2013-11-10,62.3,52.1,45.9,50.3,5.5,-99.9,81,48,1,30.03,29.92,9,2,13,0.00
2013-11-11,67.9,53.3,41.2,52.2,-6.6,-99.9,81,34,1,30.08,30.00,6,1,9,0.01
2013-11-12,70.1,58.0,52.6,52.6,43.8,-24.6,80,62,3,30.18,30.06,16,1,19,0.00
2013-11-13,74.6,58.2,46.3,55.4,12.8,-99.9,80,48,1,30.17,30.01,6,1,13,0.00
2013-11-14,61.0,49.8,43.3,54.8,-13.7,-99.9,81,40,1,30.02,29.80,9,2,14,0.01
2013-11-15,62.5,50.0,43.7,46.0,22.6,-99.9,81,49,1,29.82,29.66,11,2,24,0.00
2013-11-16,58.9,48.5,42.3,49.1,-25.7,-99.9,80,31,1,29.85,29.69,12,2,23,0.01
2013-11-17,60.2,48.0,41.5,50.7,-25.6,-99.9,82,36,1,30.01,29.84,5,0,8,0.00
2013-11-18,54.0,48.6,43.9,47.6,29.9,-99.9,81,57,1,30.07,29.99,10,2,16,0.01
2013-11-19,49.7,48.4,46.9,-99.9,-99.9,-99.9,1,1,1,30.02,29.90,13,4,17,0.21
2013-11-20,52.9,49.5,44.6,50.0,50.0,50.0,1,1,1,29.87,29.78,7,2,13,0.75
2013-11-21,59.3,51.1,43.1,50.0,36.9,18.2,83,23,1,29.91,29.83,13,4,31,0.00
2013-11-22,68.5,60.2,52.7,18.9,10.6,6.0,25,14,10,29.94,29.83,9,4,24,0.00
2013-11-23,61.2,53.3,45.9,42.7,30.4,11.1,79,44,14,30.01,29.85,5,2,20,0.00
2013-11-24,61.8,52.1,45.6,45.2,40.2,35.8,82,65,45,30.16,30.00,5,1,8,0.00
2013-11-25,62.0,52.1,46.4,45.5,41.9,36.9,80,69,53,30.24,30.16,10,2,12,0.00
2013-11-26,58.6,51.6,46.8,42.9,40.5,37.5,80,66,51,30.18,29.95,11,3,16,0.00
2013-11-27,60.0,52.0,46.5,45.0,42.4,39.9,79,70,57,29.95,29.76,17,4,17,0.00
2013-11-28,68.6,56.4,51.1,46.4,40.8,37.2,70,57,37,29.98,29.77,9,2,10,0.00
2013-11-29,66.6,57.0,51.6,48.3,42.9,36.4,82,60,43,30.12,29.97,6,1,10,0.00
2013-11-30,67.7,56.8,49.9,50.3,43.2,36.1,83,61,46,30.18,30.10,4,1,5,0.00
2013-12-1,69.4,60.1,52.4,48.3,43.8,36.5,73,55,43,30.24,30.13,5,1,10,0.00
2013-12-2,57.6,51.9,45.2,50.7,-15.0,-99.9,83,41,1,30.13,29.89,16,2,20,0.04
2013-12-3,49.3,44.0,38.2,39.3,11.3,-99.9,84,60,1,29.88,29.76,13,3,21,0.00
2013-12-4,49.3,40.6,34.2,33.4,29.4,21.4,81,65,50,30.01,29.88,6,1,9,0.00
2013-12-5,48.1,39.5,34.1,32.6,23.5,14.8,80,54,32,30.08,30.00,10,2,12,0.00
2013-12-6,47.5,40.6,33.0,37.2,-6.2,-99.9,84,50,1,30.11,29.84,29,4,40,0.82
2013-12-7,45.5,37.1,30.6,34.7,-3.3,-99.9,84,52,1,30.17,29.85,13,2,19,0.00
2013-12-8,42.1,35.3,30.0,30.1,24.6,17.3,81,66,42,30.23,30.14,8,1,11,0.00
2013-12-9,45.8,38.3,31.5,25.5,20.0,13.8,66,48,34,30.34,30.23,6,2,11,0.00
2013-12-10,49.4,40.5,32.9,32.3,26.9,25.0,80,59,39,30.33,30.13,13,2,13,0.00
2013-12-11,52.6,44.8,37.3,33.1,29.7,24.9,72,56,44,30.17,30.10,9,3,12,0.00
2013-12-12,58.2,46.5,40.6,39.9,13.7,-99.9,81,49,1,30.19,30.09,10,3,13,0.00
2013-12-13,60.5,48.1,38.3,45.2,-2.9,-99.9,82,39,1,30.26,30.15,5,0,6,0.01
2013-12-14,58.4,51.1,45.9,40.2,37.1,34.4,70,59,48,30.31,30.22,9,2,11,0.00
2013-12-15,60.7,50.9,43.7,38.1,35.8,33.1,71,57,36,30.28,30.17,12,3,13,0.00
2013-12-16,64.2,54.6,47.6,38.2,35.6,31.4,65,49,33,30.17,30.04,13,4,15,0.00
2013-12-17,61.8,54.9,49.3,40.6,37.6,33.8,66,52,41,30.10,29.94,12,4,14,0.00
2013-12-18,62.3,51.4,43.5,47.8,-2.0,-99.9,81,38,1,29.95,29.68,14,2,20,0.00
2013-12-19,53.8,46.4,39.9,41.5,28.4,-99.9,82,58,1,29.86,29.66,16,2,21,0.00
2013-12-20,60.5,50.4,42.8,41.1,25.2,9.9,80,40,21,29.93,29.85,5,1,12,0.00
2013-12-21,57.2,49.2,43.8,50.2,-22.2,-99.9,82,38,1,30.00,29.89,9,1,16,0.00
2013-12-22,65.4,55.1,49.0,46.9,41.1,36.9,78,60,44,30.20,30.00,6,1,11,0.00
2013-12-23,62.4,54.2,47.9,41.6,39.1,36.5,66,57,44,30.31,30.19,7,2,9,0.00
2013-12-24,70.8,58.4,52.0,47.0,43.1,39.4,70,57,38,30.25,30.12,5,1,6,0.00
2013-12-25,61.3,54.5,48.0,42.2,38.6,34.2,65,55,40,30.21,30.11,10,2,14,0.00
2013-12-26,63.3,55.3,49.2,40.0,35.7,31.6,65,49,33,30.17,30.09,14,4,15,0.00
2013-12-27,59.0,53.5,49.9,39.6,36.2,31.6,66,52,41,30.15,30.04,10,3,12,0.00
2013-12-28,63.9,55.6,45.9,38.1,31.5,20.4,64,41,23,30.06,29.96,5,0,9,0.00
2013-12-29,60.1,55.4,49.7,34.7,25.2,12.9,56,32,17,30.10,29.99,10,2,14,0.00
2013-12-30,62.6,51.6,45.9,41.2,36.0,24.9,70,56,35,30.17,30.08,11,3,14,0.00
2013-12-31,61.7,50.5,39.9,44.5,36.5,29.4,82,60,35,30.19,30.08,10,1,11,0.00
2014-1-1,66.8,57.2,48.5,43.3,35.2,24.9,61,44,29,30.12,30.04,3,0,4,0.00
2014-1-2,65.2,55.9,49.3,36.2,34.0,30.4,53,44,32,30.10,29.97,11,3,17,0.00